createdAt,value
2023-02-19T00:00:16.103Z,75.10
2023-02-19T00:03:28.733Z,75.36
2023-02-19T00:06:41.408Z,74.99
2023-02-19T00:09:54.022Z,75.71
2023-02-19T00:13:06.399Z,75.33
2023-02-19T00:16:20.918Z,75.14
2023-02-19T00:19:33.238Z,75.18
2023-02-19T00:22:45.820Z,74.41
2023-02-19T00:26:17.296Z,74.49
2023-02-19T00:29:30.997Z,74.26
2023-02-19T00:32:44.080Z,73.31
2023-02-19T00:36:00.737Z,73.61
2023-02-19T00:39:15.519Z,73.94
2023-02-19T00:42:28.466Z,74.77
2023-02-19T00:45:40.820Z,75.26
2023-02-19T00:48:53.584Z,75.36
2023-02-19T00:52:06.032Z,75.41
2023-02-19T00:55:18.895Z,75.66
2023-02-19T00:58:31.230Z,75.70
2023-02-19T01:01:44.880Z,76.09
2023-02-19T01:04:57.370Z,76.16
2023-02-19T01:08:10.018Z,75.87
2023-02-19T01:11:22.419Z,75.20
2023-02-19T01:14:35.632Z,75.73
2023-02-19T01:17:47.988Z,76.10
2023-02-19T01:21:00.754Z,76.47
2023-02-19T01:24:13.147Z,76.22
2023-02-19T01:27:25.776Z,76.89
2023-02-19T01:30:38.364Z,76.49
2023-02-19T01:33:53.303Z,77.63
2023-02-19T01:37:05.870Z,78.66
2023-02-19T01:40:18.602Z,79.89
2023-02-19T01:43:34.250Z,80.76
2023-02-19T01:46:48.574Z,80.98
2023-02-19T01:50:01.341Z,82.47
2023-02-19T01:53:14.731Z,83.00
2023-02-19T01:56:27.177Z,83.79
2023-02-19T01:59:40.232Z,84.21
2023-02-19T02:02:53.025Z,85.07
2023-02-19T02:06:09.453Z,85.84
2023-02-19T02:09:42.835Z,86.20
2023-02-19T02:12:57.162Z,87.11
2023-02-19T02:16:15.758Z,86.28
2023-02-19T02:19:43.612Z,87.00
2023-02-19T02:23:16.916Z,87.05
2023-02-19T02:26:41.766Z,86.28
2023-02-19T02:30:16.128Z,85.10
2023-02-19T02:33:37.350Z,83.84
2023-02-19T02:36:51.764Z,84.37
2023-02-19T02:40:04.800Z,84.74
2023-02-19T02:43:17.292Z,85.30
2023-02-19T02:46:36.122Z,85.81
2023-02-19T02:50:05.237Z,85.63
2023-02-19T02:53:54.017Z,85.03
2023-02-19T02:57:06.428Z,84.30
2023-02-19T03:00:19.805Z,83.97
2023-02-19T03:03:32.574Z,84.71
2023-02-19T03:06:45.270Z,84.58
2023-02-19T03:09:58.467Z,84.62
2023-02-19T03:13:32.036Z,84.38
2023-02-19T03:17:03.422Z,83.58
2023-02-19T03:20:16.614Z,82.97
2023-02-19T03:23:48.619Z,83.16
2023-02-19T03:27:02.698Z,83.31
2023-02-19T03:30:20.899Z,83.60
2023-02-19T03:33:33.980Z,84.24
2023-02-19T03:36:50.906Z,84.32
2023-02-19T03:40:03.650Z,84.84
2023-02-19T03:43:20.060Z,85.79
2023-02-19T03:46:46.229Z,86.34
2023-02-19T03:50:17.399Z,87.58
2023-02-19T03:53:50.183Z,88.23
2023-02-19T03:57:05.787Z,88.71
2023-02-19T04:00:27.178Z,88.98
2023-02-19T04:03:49.523Z,89.17
2023-02-19T04:07:02.028Z,89.26
2023-02-19T04:10:15.851Z,89.08
2023-02-19T04:13:34.982Z,89.60
2023-02-19T04:16:49.949Z,89.83
2023-02-19T04:20:04.047Z,90.27
2023-02-19T04:23:18.681Z,90.57
2023-02-19T04:26:31.422Z,90.96
2023-02-19T04:29:44.136Z,91.53
2023-02-19T04:32:56.524Z,92.50
2023-02-19T04:36:10.610Z,93.17
2023-02-19T04:39:22.910Z,93.28
2023-02-19T04:42:37.628Z,93.73
2023-02-19T04:45:49.993Z,94.12
2023-02-19T04:49:02.641Z,93.71
2023-02-19T04:52:15.019Z,93.50
2023-02-19T04:55:27.615Z,93.55
2023-02-19T04:58:40.124Z,93.42
2023-02-19T05:01:52.746Z,93.40
2023-02-19T05:05:05.257Z,94.04
2023-02-19T05:08:17.925Z,94.26
2023-02-19T05:11:30.263Z,94.29
2023-02-19T05:14:42.856Z,94.48
2023-02-19T05:17:55.217Z,93.98
2023-02-19T05:21:08.221Z,94.71
2023-02-19T05:24:20.798Z,95.13
2023-02-19T05:27:33.431Z,95.34
2023-02-19T05:30:50.337Z,95.52
2023-02-19T05:34:03.298Z,97.15
2023-02-19T05:37:16.422Z,98.06
2023-02-19T05:40:29.102Z,98.67
2023-02-19T05:43:42.062Z,98.43
2023-02-19T05:46:54.679Z,98.41
2023-02-19T05:50:07.158Z,98.78
2023-02-19T05:53:19.803Z,98.13
2023-02-19T05:56:39.297Z,96.67
2023-02-19T05:59:51.915Z,96.21
2023-02-19T06:03:04.321Z,95.92
2023-02-19T06:06:17.856Z,94.41
2023-02-19T06:09:30.243Z,94.44
2023-02-19T06:12:42.868Z,95.24
2023-02-19T06:15:55.259Z,95.50
2023-02-19T06:19:07.938Z,95.55
2023-02-19T06:22:20.273Z,95.76
2023-02-19T06:25:32.846Z,96.28
2023-02-19T06:28:45.421Z,97.64
2023-02-19T06:31:58.505Z,97.88
2023-02-19T06:35:10.900Z,98.04
2023-02-19T06:38:23.492Z,98.58
2023-02-19T06:41:35.813Z,99.31
2023-02-19T06:44:48.406Z,99.07
2023-02-19T06:48:00.760Z,98.33
2023-02-19T06:51:23.867Z,99.10
2023-02-19T06:54:36.221Z,98.33
2023-02-19T06:57:48.877Z,99.41
2023-02-19T07:01:01.463Z,98.53
2023-02-19T07:04:14.337Z,98.67
2023-02-19T07:07:26.712Z,97.45
2023-02-19T07:10:39.378Z,97.97
2023-02-19T07:13:56.152Z,98.89
2023-02-19T07:17:08.796Z,99.00
2023-02-19T07:20:21.105Z,99.25
2023-02-19T07:23:33.858Z,99.65
2023-02-19T07:26:46.185Z,99.37
2023-02-19T07:29:59.239Z,99.17
2023-02-19T07:33:11.595Z,98.74
2023-02-19T07:36:24.575Z,99.50
2023-02-19T07:39:36.956Z,99.10
2023-02-19T07:42:49.573Z,98.58
2023-02-19T07:46:06.248Z,98.36
2023-02-19T07:49:19.039Z,97.69
2023-02-19T07:52:31.384Z,98.06
2023-02-19T07:55:44.016Z,97.22
2023-02-19T07:58:56.387Z,97.03
2023-02-19T08:02:37.588Z,96.57
2023-02-19T08:05:51.512Z,96.05
2023-02-19T08:09:04.533Z,96.20
2023-02-19T08:12:35.771Z,95.75
2023-02-19T08:16:26.620Z,95.58
2023-02-19T08:19:46.032Z,95.40
2023-02-19T08:22:58.362Z,94.80
2023-02-19T08:26:11.074Z,95.21
2023-02-19T08:29:23.483Z,95.65
2023-02-19T08:32:36.098Z,97.32
2023-02-19T08:35:48.461Z,98.82
2023-02-19T08:39:01.149Z,100.00
2023-02-19T08:42:13.512Z,100.00
2023-02-19T08:45:26.199Z,100.00
2023-02-19T08:48:38.949Z,100.00
2023-02-19T08:51:51.564Z,100.00
2023-02-19T08:55:05.032Z,100.00
2023-02-19T08:58:17.880Z,100.00
2023-02-19T09:01:30.248Z,100.00
2023-02-19T09:04:42.877Z,100.00
2023-02-19T09:07:55.341Z,100.00
2023-02-19T09:11:09.733Z,100.00
2023-02-19T09:14:22.363Z,100.00
2023-02-19T09:17:35.106Z,100.00
2023-02-19T09:20:47.469Z,100.00
2023-02-19T09:24:00.048Z,100.00
2023-02-19T09:27:16.720Z,100.00
2023-02-19T09:30:29.355Z,100.00
2023-02-19T09:33:45.278Z,100.00
2023-02-19T09:36:57.990Z,100.00
2023-02-19T09:40:10.516Z,100.00
2023-02-19T09:43:23.259Z,100.00
2023-02-19T09:46:47.075Z,100.00
2023-02-19T09:50:01.421Z,100.00
2023-02-19T09:53:40.268Z,100.00
2023-02-19T09:56:56.686Z,100.00
2023-02-19T10:00:12.493Z,100.00
2023-02-19T10:03:36.096Z,100.00
2023-02-19T10:06:48.432Z,100.00
2023-02-19T10:10:14.498Z,100.00
2023-02-19T10:13:32.922Z,100.00
2023-02-19T10:16:45.790Z,100.00
2023-02-19T10:19:58.153Z,100.00
2023-02-19T10:23:11.102Z,100.00
2023-02-19T10:26:23.922Z,100.00
2023-02-19T10:29:36.628Z,100.00
2023-02-19T10:32:59.775Z,100.00
2023-02-19T10:36:37.605Z,100.00
2023-02-19T10:39:50.050Z,100.00
2023-02-19T10:43:03.731Z,100.00
2023-02-19T10:46:27.685Z,100.00
2023-02-19T10:49:40.343Z,100.00
2023-02-19T10:52:54.595Z,100.00
2023-02-19T10:56:09.475Z,100.00
2023-02-19T10:59:25.356Z,100.00
2023-02-19T11:02:38.006Z,100.00
2023-02-19T11:06:00.117Z,100.00
2023-02-19T11:09:26.770Z,100.00
2023-02-19T11:12:39.203Z,100.00
2023-02-19T11:15:53.118Z,100.00
2023-02-19T11:19:05.464Z,100.00
2023-02-19T11:22:33.085Z,100.00
2023-02-19T11:25:53.038Z,97.20
2023-02-19T11:29:18.073Z,95.54
2023-02-19T11:32:30.898Z,92.40
2023-02-19T11:35:44.302Z,92.39
2023-02-19T11:38:57.575Z,92.38
2023-02-19T11:42:13.658Z,91.78
2023-02-19T11:45:55.109Z,92.12
2023-02-19T11:49:29.167Z,91.06
2023-02-19T11:53:00.156Z,86.78
2023-02-19T11:56:39.166Z,78.61
2023-02-19T12:00:26.159Z,77.54
2023-02-19T12:04:12.580Z,74.32
2023-02-19T12:07:42.056Z,69.86
2023-02-19T12:11:01.528Z,69.67
2023-02-19T12:14:24.923Z,69.80
2023-02-19T12:17:53.853Z,69.50
2023-02-19T12:21:22.680Z,69.07
2023-02-19T12:24:54.929Z,69.95
2023-02-19T12:28:29.319Z,68.85
2023-02-19T12:32:14.846Z,69.37
2023-02-19T12:35:35.286Z,68.11
2023-02-19T12:38:58.166Z,68.22
2023-02-19T12:42:50.163Z,67.38
2023-02-19T12:46:21.679Z,66.36
2023-02-19T12:49:39.320Z,67.02
2023-02-19T12:53:06.082Z,66.94
2023-02-19T12:56:25.251Z,67.03
2023-02-19T12:59:43.861Z,66.37
2023-02-19T13:03:20.959Z,66.62
2023-02-19T13:06:36.744Z,66.51
2023-02-19T13:09:57.001Z,66.70
2023-02-19T13:13:26.625Z,67.45
2023-02-19T13:16:39.862Z,69.95
2023-02-19T13:19:57.056Z,74.87
2023-02-19T13:23:50.611Z,77.93
2023-02-19T13:27:37.462Z,81.49
2023-02-19T13:31:24.955Z,83.49
2023-02-19T13:34:47.904Z,83.81
2023-02-19T13:38:01.390Z,82.42
2023-02-19T13:42:02.347Z,84.15
2023-02-19T13:45:24.364Z,82.21
2023-02-19T13:48:38.349Z,83.16
2023-02-19T13:51:54.780Z,83.89
2023-02-19T13:55:52.108Z,85.12
2023-02-19T13:59:38.831Z,84.30
2023-02-19T14:02:51.549Z,80.48
2023-02-19T14:06:08.645Z,81.45
2023-02-19T14:09:40.450Z,95.38
2023-02-19T14:12:53.079Z,100.00
2023-02-19T14:16:07.289Z,100.00
2023-02-19T14:19:43.167Z,100.00
2023-02-19T14:23:01.674Z,100.00
2023-02-19T14:26:14.303Z,100.00
2023-02-19T14:29:26.626Z,100.00
2023-02-19T14:32:40.453Z,100.00
2023-02-19T14:35:59.202Z,100.00
2023-02-19T14:39:19.980Z,100.00
2023-02-19T14:42:34.075Z,100.00
2023-02-19T14:45:58.459Z,100.00
2023-02-19T14:49:23.389Z,100.00
2023-02-19T14:52:40.156Z,100.00
2023-02-19T14:55:52.547Z,100.00
2023-02-19T14:59:11.993Z,100.00
2023-02-19T15:02:26.014Z,100.00
2023-02-19T15:05:38.711Z,100.00
2023-02-19T15:08:53.075Z,100.00
2023-02-19T15:12:05.962Z,100.00
2023-02-19T15:15:22.713Z,100.00
2023-02-19T15:18:37.648Z,100.00
2023-02-19T15:21:50.308Z,100.00
2023-02-19T15:25:03.876Z,100.00
2023-02-19T15:28:25.251Z,100.00
2023-02-19T15:31:45.244Z,100.00
2023-02-19T15:35:04.487Z,100.00
2023-02-19T15:38:17.140Z,100.00
2023-02-19T15:41:32.827Z,100.00
2023-02-19T15:44:57.768Z,97.85
2023-02-19T15:48:16.005Z,96.16
2023-02-19T15:51:34.576Z,94.87
2023-02-19T15:55:18.260Z,95.73
2023-02-19T15:58:58.448Z,96.10
2023-02-19T16:02:12.105Z,95.32
2023-02-19T16:05:26.398Z,94.11
2023-02-19T16:08:39.216Z,92.19
2023-02-19T16:11:53.462Z,93.46
2023-02-19T16:15:18.991Z,92.36
2023-02-19T16:18:31.599Z,93.62
2023-02-19T16:21:43.944Z,92.02
2023-02-19T16:25:01.795Z,90.72
2023-02-19T16:28:19.224Z,92.27
2023-02-19T16:31:31.889Z,90.38
2023-02-19T16:34:46.894Z,90.75
2023-02-19T16:37:59.770Z,90.69
2023-02-19T16:41:12.831Z,90.51
2023-02-19T16:44:25.508Z,89.84
2023-02-19T16:47:37.984Z,90.07
2023-02-19T16:50:50.678Z,90.62
2023-02-19T16:54:03.023Z,90.51
2023-02-19T16:57:15.635Z,92.23
2023-02-19T17:00:29.700Z,92.79
2023-02-19T17:03:42.429Z,93.78
2023-02-19T17:06:54.832Z,94.02
2023-02-19T17:10:07.581Z,92.33
2023-02-19T17:13:19.930Z,92.02
2023-02-19T17:16:39.867Z,93.24
2023-02-19T17:19:52.421Z,93.92
2023-02-19T17:23:05.090Z,94.43
2023-02-19T17:26:19.616Z,92.62
2023-02-19T17:29:33.986Z,92.38
2023-02-19T17:32:46.315Z,92.91
2023-02-19T17:35:58.946Z,92.84
2023-02-19T17:39:15.159Z,92.10
2023-02-19T17:42:27.791Z,91.56
2023-02-19T17:45:40.226Z,92.66
2023-02-19T17:48:52.984Z,91.88
2023-02-19T17:52:05.552Z,91.69
2023-02-19T17:55:18.500Z,91.93
2023-02-19T17:58:30.944Z,90.34
2023-02-19T18:01:46.020Z,91.36
2023-02-19T18:04:58.687Z,89.81
2023-02-19T18:08:11.263Z,90.77
2023-02-19T18:11:23.926Z,89.34
2023-02-19T18:14:36.267Z,89.82
2023-02-19T18:17:48.893Z,87.65
2023-02-19T18:21:01.225Z,87.80
2023-02-19T18:24:13.816Z,86.77
2023-02-19T18:27:26.174Z,87.47
2023-02-19T18:30:38.891Z,87.93
2023-02-19T18:33:51.287Z,88.86
2023-02-19T18:37:03.995Z,89.08
2023-02-19T18:40:16.397Z,90.78
2023-02-19T18:43:29.023Z,91.57
2023-02-19T18:46:41.402Z,92.26
2023-02-19T18:49:55.273Z,92.79
2023-02-19T18:53:07.627Z,93.41
2023-02-19T18:56:20.300Z,94.25
2023-02-19T18:59:32.863Z,94.62
2023-02-19T19:02:49.651Z,94.63
2023-02-19T19:06:03.794Z,95.09
2023-02-19T19:09:16.437Z,95.64
2023-02-19T19:12:28.779Z,95.29
2023-02-19T19:15:41.523Z,94.45
2023-02-19T19:18:54.322Z,93.93
2023-02-19T19:22:06.970Z,92.95
2023-02-19T19:25:19.914Z,93.56
2023-02-19T19:28:32.559Z,93.84
2023-02-19T19:31:45.128Z,94.40
2023-02-19T19:34:57.824Z,93.99
2023-02-19T19:38:10.129Z,93.51
2023-02-19T19:41:22.731Z,93.03
2023-02-19T19:44:35.013Z,93.58
2023-02-19T19:47:48.866Z,93.08
2023-02-19T19:51:01.239Z,92.82
2023-02-19T19:54:13.965Z,93.02
2023-02-19T19:57:26.303Z,93.21
2023-02-19T20:00:38.980Z,93.08
2023-02-19T20:03:51.599Z,92.18
2023-02-19T20:07:03.965Z,93.11
2023-02-19T20:10:16.945Z,93.61
2023-02-19T20:13:30.575Z,92.47
2023-02-19T20:16:44.696Z,93.14
2023-02-19T20:19:57.128Z,93.56
2023-02-19T20:23:09.764Z,94.39
2023-02-19T20:26:26.440Z,95.04
2023-02-19T20:29:39.040Z,95.18
2023-02-19T20:32:51.428Z,95.52
2023-02-19T20:36:04.230Z,96.82
2023-02-19T20:39:17.144Z,96.61
2023-02-19T20:42:29.785Z,96.69
2023-02-19T20:45:45.708Z,97.26
2023-02-19T20:48:58.312Z,96.34
2023-02-19T20:52:10.641Z,97.15
2023-02-19T20:55:24.945Z,91.54
2023-02-19T20:58:37.286Z,89.57
2023-02-19T21:01:50.007Z,87.80
2023-02-19T21:05:02.351Z,85.28
2023-02-19T21:08:17.180Z,86.41
2023-02-19T21:11:29.548Z,84.15
2023-02-19T21:14:42.186Z,81.68
2023-02-19T21:17:54.502Z,80.79
2023-02-19T21:21:07.375Z,82.29
2023-02-19T21:24:19.732Z,82.67
2023-02-19T21:27:32.321Z,81.87
2023-02-19T21:30:44.710Z,81.43
2023-02-19T21:33:57.357Z,78.94
2023-02-19T21:37:09.674Z,79.01
2023-02-19T21:40:23.467Z,75.83
2023-02-19T21:43:35.832Z,75.61
2023-02-19T21:46:48.556Z,75.69
2023-02-19T21:50:00.930Z,74.40
2023-02-19T21:53:13.828Z,72.57
2023-02-19T21:56:27.781Z,72.11
2023-02-19T21:59:40.409Z,71.83
2023-02-19T22:02:52.725Z,71.72
2023-02-19T22:06:05.604Z,71.43
2023-02-19T22:09:17.956Z,71.46
2023-02-19T22:12:30.594Z,70.52
2023-02-19T22:15:42.899Z,71.78
2023-02-19T22:18:57.308Z,72.43
2023-02-19T22:22:09.741Z,73.25
2023-02-19T22:25:22.320Z,72.49
2023-02-19T22:28:34.606Z,72.08
2023-02-19T22:31:48.543Z,70.06
2023-02-19T22:35:00.900Z,70.51
2023-02-19T22:38:13.572Z,70.39
2023-02-19T22:41:26.043Z,68.87
2023-02-19T22:44:38.699Z,67.99
2023-02-19T22:47:54.706Z,67.60
2023-02-19T22:51:14.640Z,66.93
2023-02-19T22:54:27.131Z,66.66
2023-02-19T22:57:39.781Z,66.79
2023-02-19T23:00:52.146Z,67.11
2023-02-19T23:04:05.003Z,67.51
2023-02-19T23:07:17.393Z,67.82
2023-02-19T23:10:30.017Z,68.94
2023-02-19T23:13:42.609Z,68.92
2023-02-19T23:16:55.361Z,69.33
2023-02-19T23:20:08.365Z,70.00
2023-02-19T23:23:21.019Z,69.72
2023-02-19T23:26:33.566Z,70.23
2023-02-19T23:29:46.209Z,70.27
2023-02-19T23:32:58.612Z,71.09
2023-02-19T23:36:11.658Z,71.63
2023-02-19T23:39:24.146Z,71.43
2023-02-19T23:42:37.511Z,70.58
2023-02-19T23:45:49.893Z,70.37
2023-02-19T23:49:02.611Z,71.76
2023-02-19T23:52:14.988Z,71.37
2023-02-19T23:55:27.644Z,71.60
2023-02-19T23:58:40.017Z,70.66
